sensor_id;sensor_type;location;lat;lon;timestamp;pressure;altitude;pressure_sealevel;temperature;humidity
66880;BME280;53789;51.392;10.234;2022-11-12T00:00:03;99834.66;;;4.71;75.72
66880;BME280;53789;51.392;10.234;2022-11-12T00:00:24;99830.00;;;4.71;76.98
66880;BME280;53789;51.392;10.234;2022-11-12T00:00:44;99835.47;;;4.71;76.69
66880;BME280;53789;51.392;10.234;2022-11-12T00:01:04;99830.88;;;4.72;76.79
66880;BME280;53789;51.392;10.234;2022-11-12T00:01:25;99834.41;;;4.72;76.41
66880;BME280;53789;51.392;10.234;2022-11-12T00:01:45;99839.63;;;4.74;76.55
66880;BME280;53789;51.392;10.234;2022-11-12T00:02:05;99834.41;;;4.72;76.52
66880;BME280;53789;51.392;10.234;2022-11-12T00:02:26;99840.91;;;4.71;76.01
66880;BME280;53789;51.392;10.234;2022-11-12T00:02:46;99832.16;;;4.69;76.18
66880;BME280;53789;51.392;10.234;2022-11-12T00:03:06;99843.06;;;4.69;76.82
66880;BME280;53789;51.392;10.234;2022-11-12T00:03:26;99831.56;;;4.67;75.94
66880;BME280;53789;51.392;10.234;2022-11-12T00:03:47;99836.16;;;4.67;77.38
66880;BME280;53789;51.392;10.234;2022-11-12T00:04:07;99830.72;;;4.67;76.94
66880;BME280;53789;51.392;10.234;2022-11-12T00:04:27;99840.78;;;4.66;77.34
66880;BME280;53789;51.392;10.234;2022-11-12T00:04:47;99841.59;;;4.67;77.39
66880;BME280;53789;51.392;10.234;2022-11-12T00:05:08;99839.97;;;4.66;76.38
66880;BME280;53789;51.392;10.234;2022-11-12T00:05:29;99840.78;;;4.66;76.63
66880;BME280;53789;51.392;10.234;2022-11-12T00:05:49;99836.38;;;4.65;76.75
66880;BME280;53789;51.392;10.234;2022-11-12T00:06:10;99828.22;;;4.65;76.88
66880;BME280;53789;51.392;10.234;2022-11-12T00:06:30;99829.06;;;4.66;77.52
66880;BME280;53789;51.392;10.234;2022-11-12T00:06:50;99833.44;;;4.67;76.77
66880;BME280;53789;51.392;10.234;2022-11-12T00:07:10;99829.06;;;4.66;77.09
66880;BME280;53789;51.392;10.234;2022-11-12T00:07:31;99827.38;;;4.65;76.90
66880;BME280;53789;51.392;10.234;2022-11-12T00:07:51;99831.16;;;4.63;76.88
66880;BME280;53789;51.392;10.234;2022-11-12T00:08:12;99840.19;;;4.64;77.21
66880;BME280;53789;51.392;10.234;2022-11-12T00:08:32;99840.19;;;4.64;77.00
66880;BME280;53789;51.392;10.234;2022-11-12T00:08:52;99833.06;;;4.63;76.49
66880;BME280;53789;51.392;10.234;2022-11-12T00:09:12;99824.91;;;4.63;76.90
66880;BME280;53789;51.392;10.234;2022-11-12T00:09:33;99832.03;;;4.64;77.08
66880;BME280;53789;51.392;10.234;2022-11-12T00:09:53;99826.75;;;4.62;77.17
66880;BME280;53789;51.392;10.234;2022-11-12T00:10:14;99834.94;;;4.62;77.22
66880;BME280;53789;51.392;10.234;2022-11-12T00:10:34;99826.75;;;4.62;76.86
66880;BME280;53789;51.392;10.234;2022-11-12T00:10:55;99833.06;;;4.63;76.88
66880;BME280;53789;51.392;10.234;2022-11-12T00:11:15;99834.94;;;4.62;77.15
66880;BME280;53789;51.392;10.234;2022-11-12T00:11:35;99840.19;;;4.64;76.81
66880;BME280;53789;51.392;10.234;2022-11-12T00:11:56;99833.88;;;4.63;76.83
66880;BME280;53789;51.392;10.234;2022-11-12T00:12:16;99834.13;;;4.62;77.17
66880;BME280;53789;51.392;10.234;2022-11-12T00:12:36;99827.63;;;4.63;77.13
66880;BME280;53789;51.392;10.234;2022-11-12T00:12:57;99837.66;;;4.62;77.31
66880;BME280;53789;51.392;10.234;2022-11-12T00:13:18;99828.66;;;4.62;76.25
66880;BME280;53789;51.392;10.234;2022-11-12T00:13:38;99832.44;;;4.61;77.14
66880;BME280;53789;51.392;10.234;2022-11-12T00:13:58;99832.44;;;4.61;76.62
66880;BME280;53789;51.392;10.234;2022-11-12T00:14:18;99836.84;;;4.62;76.68
66880;BME280;53789;51.392;10.234;2022-11-12T00:14:39;99833.28;;;4.61;77.45
66880;BME280;53789;51.392;10.234;2022-11-12T00:14:59;99832.22;;;4.62;76.99
66880;BME280;53789;51.392;10.234;2022-11-12T00:15:20;99842.28;;;4.62;77.05
66880;BME280;53789;51.392;10.234;2022-11-12T00:15:40;99831.41;;;4.62;76.43
66880;BME280;53789;51.392;10.234;2022-11-12T00:16:00;99840.41;;;4.62;76.36
66880;BME280;53789;51.392;10.234;2022-11-12T00:16:21;99836.03;;;4.61;76.31
66880;BME280;53789;51.392;10.234;2022-11-12T00:16:41;99837.91;;;4.61;76.63
66880;BME280;53789;51.392;10.234;2022-11-12T00:17:01;99837.06;;;4.60;76.65
66880;BME280;53789;51.392;10.234;2022-11-12T00:17:22;99840.63;;;4.61;76.46
66880;BME280;53789;51.392;10.234;2022-11-12T00:17:42;99836.25;;;4.60;77.00
66880;BME280;53789;51.392;10.234;2022-11-12T00:18:03;99838.97;;;4.60;76.83
66880;BME280;53789;51.392;10.234;2022-11-12T00:18:23;99828.91;;;4.60;77.14
66880;BME280;53789;51.392;10.234;2022-11-12T00:18:43;99843.34;;;4.61;76.68
66880;BME280;53789;51.392;10.234;2022-11-12T00:19:04;99836.25;;;4.60;76.62
66880;BME280;53789;51.392;10.234;2022-11-12T00:19:24;99837.91;;;4.61;76.76
66880;BME280;53789;51.392;10.234;2022-11-12T00:19:44;99836.03;;;4.61;77.40
66880;BME280;53789;51.392;10.234;2022-11-12T00:20:06;99834.13;;;4.62;77.10
66880;BME280;53789;51.392;10.234;2022-11-12T00:20:27;99842.28;;;4.62;77.22
66880;BME280;53789;51.392;10.234;2022-11-12T00:20:47;99837.06;;;4.60;76.12
66880;BME280;53789;51.392;10.234;2022-11-12T00:21:08;99843.34;;;4.61;76.49
66880;BME280;53789;51.392;10.234;2022-11-12T00:21:28;99838.13;;;4.59;76.89
66880;BME280;53789;51.392;10.234;2022-11-12T00:21:48;99835.41;;;4.59;77.21
66880;BME280;53789;51.392;10.234;2022-11-12T00:22:08;99833.53;;;4.60;77.49
66880;BME280;53789;51.392;10.234;2022-11-12T00:22:29;99835.16;;;4.61;77.12
66880;BME280;53789;51.392;10.234;2022-11-12T00:22:49;99829.72;;;4.61;78.28
66880;BME280;53789;51.392;10.234;2022-11-12T00:23:09;99835.16;;;4.61;77.61
66880;BME280;53789;51.392;10.234;2022-11-12T00:23:30;99835.16;;;4.61;77.54
66880;BME280;53789;51.392;10.234;2022-11-12T00:23:50;99836.84;;;4.62;77.47
66880;BME280;53789;51.392;10.234;2022-11-12T00:24:10;99834.94;;;4.62;78.26
66880;BME280;53789;51.392;10.234;2022-11-12T00:24:30;99836.84;;;4.62;77.55
66880;BME280;53789;51.392;10.234;2022-11-12T00:24:51;99828.44;;;4.63;78.27
66880;BME280;53789;51.392;10.234;2022-11-12T00:25:11;99838.28;;;4.65;78.59
66880;BME280;53789;51.392;10.234;2022-11-12T00:25:32;99836.38;;;4.65;78.29
66880;BME280;53789;51.392;10.234;2022-11-12T00:25:59;99843.50;;;4.66;77.81
66880;BME280;53789;51.392;10.234;2022-11-12T00:26:19;99844.34;;;4.67;77.75
66880;BME280;53789;51.392;10.234;2022-11-12T00:26:39;99843.50;;;4.66;77.64
66880;BME280;53789;51.392;10.234;2022-11-12T00:27:00;99842.06;;;4.63;77.05
66880;BME280;53789;51.392;10.234;2022-11-12T00:27:20;99836.84;;;4.62;76.55
66880;BME280;53789;51.392;10.234;2022-11-12T00:27:41;99842.28;;;4.62;77.29
66880;BME280;53789;51.392;10.234;2022-11-12T00:28:04;99837.91;;;4.61;77.12
66880;BME280;53789;51.392;10.234;2022-11-12T00:28:24;99841.47;;;4.61;77.76
66880;BME280;53789;51.392;10.234;2022-11-12T00:28:45;99845.03;;;4.62;76.92
66880;BME280;53789;51.392;10.234;2022-11-12T00:29:05;99846.69;;;4.63;76.76
66880;BME280;53789;51.392;10.234;2022-11-12T00:29:25;99842.28;;;4.62;76.91
66880;BME280;53789;51.392;10.234;2022-11-12T00:29:46;99847.75;;;4.62;76.88
66880;BME280;53789;51.392;10.234;2022-11-12T00:30:06;99844.78;;;4.63;77.12
66880;BME280;53789;51.392;10.234;2022-11-12T00:30:27;99845.66;;;4.64;76.99
66880;BME280;53789;51.392;10.234;2022-11-12T00:30:48;99844.56;;;4.65;76.64
66880;BME280;53789;51.392;10.234;2022-11-12T00:31:10;99844.34;;;4.67;76.58
66880;BME280;53789;51.392;10.234;2022-11-12T00:31:31;99842.47;;;4.67;76.97
66880;BME280;53789;51.392;10.234;2022-11-12T00:31:51;99847.06;;;4.67;76.29
66880;BME280;53789;51.392;10.234;2022-11-12T00:32:11;99845.41;;;4.66;76.23
66880;BME280;53789;51.392;10.234;2022-11-12T00:32:35;99850.00;;;4.65;76.37
66880;BME280;53789;51.392;10.234;2022-11-12T00:32:56;99848.38;;;4.64;76.25
66880;BME280;53789;51.392;10.234;2022-11-12T00:33:16;99837.47;;;4.64;76.54
66880;BME280;53789;51.392;10.234;2022-11-12T00:33:43;99843.75;;;4.65;77.04
66880;BME280;53789;51.392;10.234;2022-11-12T00:34:03;99844.56;;;4.65;76.79
66880;BME280;53789;51.392;10.234;2022-11-12T00:34:23;99841.84;;;4.65;76.71
66880;BME280;53789;51.392;10.234;2022-11-12T00:34:44;99846.25;;;4.66;77.01
66880;BME280;53789;51.392;10.234;2022-11-12T00:35:05;99847.06;;;4.67;77.20
66880;BME280;53789;51.392;10.234;2022-11-12T00:35:26;99843.50;;;4.66;77.48
66880;BME280;53789;51.392;10.234;2022-11-12T00:35:46;99853.38;;;4.67;77.58
66880;BME280;53789;51.392;10.234;2022-11-12T00:36:07;99846.81;;;4.68;77.75
66880;BME280;53789;51.392;10.234;2022-11-12T00:36:28;99852.06;;;4.70;77.34
66880;BME280;53789;51.392;10.234;2022-11-12T00:36:48;99849.31;;;4.70;76.62
66880;BME280;53789;51.392;10.234;2022-11-12T00:37:08;99847.44;;;4.70;76.18
66880;BME280;53789;51.392;10.234;2022-11-12T00:37:28;99844.97;;;4.69;76.31
66880;BME280;53789;51.392;10.234;2022-11-12T00:37:55;99849.78;;;4.67;75.95
66880;BME280;53789;51.392;10.234;2022-11-12T00:38:15;99855.25;;;4.67;76.28
66880;BME280;53789;51.392;10.234;2022-11-12T00:38:36;99853.38;;;4.67;76.54
66880;BME280;53789;51.392;10.234;2022-11-12T00:38:56;99852.50;;;4.67;75.90
66880;BME280;53789;51.392;10.234;2022-11-12T00:39:16;99850.63;;;4.67;76.29
66880;BME280;53789;51.392;10.234;2022-11-12T00:39:36;99854.66;;;4.65;75.61
66880;BME280;53789;51.392;10.234;2022-11-12T00:39:57;99860.31;;;4.63;75.48
66880;BME280;53789;51.392;10.234;2022-11-12T00:40:17;99859.69;;;4.61;75.78
66880;BME280;53789;51.392;10.234;2022-11-12T00:40:37;99855.34;;;4.60;75.81
66880;BME280;53789;51.392;10.234;2022-11-12T00:40:58;99858.28;;;4.58;75.89
66880;BME280;53789;51.392;10.234;2022-11-12T00:41:19;99857.44;;;4.58;75.83
66880;BME280;53789;51.392;10.234;2022-11-12T00:41:39;99850.34;;;4.57;75.73
66880;BME280;53789;51.392;10.234;2022-11-12T00:42:00;99857.88;;;4.55;75.91
66880;BME280;53789;51.392;10.234;2022-11-12T00:42:21;99855.16;;;4.55;76.22
66880;BME280;53789;51.392;10.234;2022-11-12T00:42:41;99856.84;;;4.56;76.27
66880;BME280;53789;51.392;10.234;2022-11-12T00:43:01;99856.84;;;4.56;76.20
66880;BME280;53789;51.392;10.234;2022-11-12T00:43:22;99857.06;;;4.54;76.61
66880;BME280;53789;51.392;10.234;2022-11-12T00:43:42;99856.84;;;4.56;76.32
66880;BME280;53789;51.392;10.234;2022-11-12T00:44:02;99859.78;;;4.54;75.63
66880;BME280;53789;51.392;10.234;2022-11-12T00:44:22;99855.16;;;4.55;75.78
66880;BME280;53789;51.392;10.234;2022-11-12T00:44:43;99852.66;;;4.53;76.10
66880;BME280;53789;51.392;10.234;2022-11-12T00:45:03;99851.84;;;4.53;76.24
66880;BME280;53789;51.392;10.234;2022-11-12T00:45:24;99848.31;;;4.52;76.07
66880;BME280;53789;51.392;10.234;2022-11-12T00:45:44;99851.84;;;4.53;76.52
66880;BME280;53789;51.392;10.234;2022-11-12T00:46:04;99851.03;;;4.52;76.20
66880;BME280;53789;51.392;10.234;2022-11-12T00:46:25;99855.63;;;4.52;76.22
66880;BME280;53789;51.392;10.234;2022-11-12T00:46:45;99855.63;;;4.52;76.11
66880;BME280;53789;51.392;10.234;2022-11-12T00:47:06;99855.63;;;4.52;76.29
66880;BME280;53789;51.392;10.234;2022-11-12T00:47:26;99853.94;;;4.51;76.16
66880;BME280;53789;51.392;10.234;2022-11-12T00:47:46;99861.94;;;4.52;76.01
66880;BME280;53789;51.392;10.234;2022-11-12T00:48:07;99852.91;;;4.52;76.22
66880;BME280;53789;51.392;10.234;2022-11-12T00:48:27;99856.66;;;4.51;76.83
66880;BME280;53789;51.392;10.234;2022-11-12T00:48:47;99853.94;;;4.51;76.25
66880;BME280;53789;51.392;10.234;2022-11-12T00:49:07;99860.25;;;4.51;76.47
66880;BME280;53789;51.392;10.234;2022-11-12T00:49:28;99859.41;;;4.51;76.09
66880;BME280;53789;51.392;10.234;2022-11-12T00:49:48;99860.25;;;4.51;75.58
66880;BME280;53789;51.392;10.234;2022-11-12T00:50:09;99857.75;;;4.50;76.29
66880;BME280;53789;51.392;10.234;2022-11-12T00:50:29;99857.75;;;4.50;75.86
66880;BME280;53789;51.392;10.234;2022-11-12T00:50:49;99857.75;;;4.50;75.98
66880;BME280;53789;51.392;10.234;2022-11-12T00:51:10;99862.13;;;4.51;75.77
66880;BME280;53789;51.392;10.234;2022-11-12T00:51:30;99858.56;;;4.50;76.30
66880;BME280;53789;51.392;10.234;2022-11-12T00:51:50;99863.19;;;4.50;75.98
66880;BME280;53789;51.392;10.234;2022-11-12T00:52:11;99858.81;;;4.49;75.85
66880;BME280;53789;51.392;10.234;2022-11-12T00:52:31;99856.09;;;4.49;75.88
66880;BME280;53789;51.392;10.234;2022-11-12T00:52:52;99854.41;;;4.48;76.64
66880;BME280;53789;51.392;10.234;2022-11-12T00:53:12;99857.97;;;4.48;76.45
66880;BME280;53789;51.392;10.234;2022-11-12T00:53:33;99869.69;;;4.49;76.21
66880;BME280;53789;51.392;10.234;2022-11-12T00:53:53;99859.84;;;4.48;76.03
66880;BME280;53789;51.392;10.234;2022-11-12T00:54:13;99859.84;;;4.48;75.78
66880;BME280;53789;51.392;10.234;2022-11-12T00:54:34;99853.59;;;4.47;76.35
66880;BME280;53789;51.392;10.234;2022-11-12T00:54:54;99859.84;;;4.48;77.16
66880;BME280;53789;51.392;10.234;2022-11-12T00:55:14;99854.41;;;4.48;76.99
66880;BME280;53789;51.392;10.234;2022-11-12T00:55:35;99864.25;;;4.49;76.88
66880;BME280;53789;51.392;10.234;2022-11-12T00:56:03;99858.81;;;4.49;76.18
66880;BME280;53789;51.392;10.234;2022-11-12T00:56:23;99857.13;;;4.48;75.90
66880;BME280;53789;51.392;10.234;2022-11-12T00:56:47;99855.25;;;4.48;75.78
66880;BME280;53789;51.392;10.234;2022-11-12T00:57:07;99859.84;;;4.48;75.96
66880;BME280;53789;51.392;10.234;2022-11-12T00:57:28;99862.56;;;4.48;75.80
66880;BME280;53789;51.392;10.234;2022-11-12T00:57:48;99859.84;;;4.48;75.77
66880;BME280;53789;51.392;10.234;2022-11-12T00:58:08;99859.84;;;4.48;75.61
66880;BME280;53789;51.392;10.234;2022-11-12T00:58:31;99869.09;;;4.47;75.55
66880;BME280;53789;51.392;10.234;2022-11-12T00:58:52;99862.00;;;4.45;75.66
66880;BME280;53789;51.392;10.234;2022-11-12T00:59:13;99860.31;;;4.44;75.81
66880;BME280;53789;51.392;10.234;2022-11-12T00:59:33;99860.09;;;4.46;75.88
66880;BME280;53789;51.392;10.234;2022-11-12T00:59:53;99862.00;;;4.45;75.85
66880;BME280;53789;51.392;10.234;2022-11-12T01:00:16;99854.88;;;4.44;75.72
66880;BME280;53789;51.392;10.234;2022-11-12T01:00:36;99859.50;;;4.44;75.75
66880;BME280;53789;51.392;10.234;2022-11-12T01:00:56;99861.38;;;4.43;76.08
66880;BME280;53789;51.392;10.234;2022-11-12T01:01:17;99861.38;;;4.43;75.75
66880;BME280;53789;51.392;10.234;2022-11-12T01:01:37;99861.63;;;4.42;75.78
66880;BME280;53789;51.392;10.234;2022-11-12T01:01:58;99864.13;;;4.43;75.74
66880;BME280;53789;51.392;10.234;2022-11-12T01:02:18;99861.63;;;4.42;76.25
66880;BME280;53789;51.392;10.234;2022-11-12T01:02:38;99853.44;;;4.42;76.14
66880;BME280;53789;51.392;10.234;2022-11-12T01:02:59;99860.75;;;4.41;76.46
66880;BME280;53789;51.392;10.234;2022-11-12T01:03:19;99863.50;;;4.41;76.67
66880;BME280;53789;51.392;10.234;2022-11-12T01:03:40;99867.88;;;4.42;76.32
66880;BME280;53789;51.392;10.234;2022-11-12T01:04:01;99866.22;;;4.41;76.22
66880;BME280;53789;51.392;10.234;2022-11-12T01:04:21;99861.63;;;4.42;75.84
66880;BME280;53789;51.392;10.234;2022-11-12T01:04:41;99856.16;;;4.42;75.88
66880;BME280;53789;51.392;10.234;2022-11-12T01:05:02;99859.94;;;4.41;76.54
66880;BME280;53789;51.392;10.234;2022-11-12T01:05:22;99862.44;;;4.42;76.29
66880;BME280;53789;51.392;10.234;2022-11-12T01:05:42;99862.44;;;4.42;75.30
66880;BME280;53789;51.392;10.234;2022-11-12T01:06:05;99870.63;;;4.42;75.42
66880;BME280;53789;51.392;10.234;2022-11-12T01:06:26;99865.63;;;4.39;75.84
66880;BME280;53789;51.392;10.234;2022-11-12T01:06:46;99868.34;;;4.39;75.32
66880;BME280;53789;51.392;10.234;2022-11-12T01:07:06;99867.50;;;4.39;75.41
66880;BME280;53789;51.392;10.234;2022-11-12T01:07:27;99865.84;;;4.38;74.74
66880;BME280;53789;51.392;10.234;2022-11-12T01:07:47;99863.34;;;4.36;75.31
66880;BME280;53789;51.392;10.234;2022-11-12T01:08:07;99861.69;;;4.35;75.62
66880;BME280;53789;51.392;10.234;2022-11-12T01:08:28;99867.94;;;4.36;75.37
66880;BME280;53789;51.392;10.234;2022-11-12T01:08:49;99863.81;;;4.33;76.01
66880;BME280;53789;51.392;10.234;2022-11-12T01:09:10;99869.25;;;4.33;75.79
66880;BME280;53789;51.392;10.234;2022-11-12T01:09:30;99866.53;;;4.33;76.42
66880;BME280;53789;51.392;10.234;2022-11-12T01:09:50;99870.91;;;4.34;76.11
66880;BME280;53789;51.392;10.234;2022-11-12T01:10:11;99868.41;;;4.33;76.64
66880;BME280;53789;51.392;10.234;2022-11-12T01:10:34;99873.63;;;4.34;76.48
66880;BME280;53789;51.392;10.234;2022-11-12T01:10:54;99867.13;;;4.35;76.37
66880;BME280;53789;51.392;10.234;2022-11-12T01:11:18;99866.91;;;4.37;76.07
66880;BME280;53789;51.392;10.234;2022-11-12T01:11:39;99867.94;;;4.36;76.67
66880;BME280;53789;51.392;10.234;2022-11-12T01:12:00;99869.63;;;4.37;76.42
66880;BME280;53789;51.392;10.234;2022-11-12T01:12:20;99868.81;;;4.36;75.89
66880;BME280;53789;51.392;10.234;2022-11-12T01:12:40;99863.34;;;4.36;76.13
66880;BME280;53789;51.392;10.234;2022-11-12T01:13:00;99862.28;;;4.37;76.65
66880;BME280;53789;51.392;10.234;2022-11-12T01:13:21;99864.78;;;4.39;76.56
66880;BME280;53789;51.392;10.234;2022-11-12T01:13:44;99863.94;;;4.38;76.52
66880;BME280;53789;51.392;10.234;2022-11-12T01:14:07;99871.28;;;4.38;76.21
66880;BME280;53789;51.392;10.234;2022-11-12T01:14:27;99873.16;;;4.37;75.61
66880;BME280;53789;51.392;10.234;2022-11-12T01:14:48;99872.34;;;4.37;76.27
66880;BME280;53789;51.392;10.234;2022-11-12T01:15:08;99866.06;;;4.36;75.41
66880;BME280;53789;51.392;10.234;2022-11-12T01:15:29;99871.53;;;4.36;75.49
66880;BME280;53789;51.392;10.234;2022-11-12T01:15:49;99866.31;;;4.35;76.11
66880;BME280;53789;51.392;10.234;2022-11-12T01:16:16;99874.25;;;4.36;76.14
66880;BME280;53789;51.392;10.234;2022-11-12T01:16:38;99869.25;;;4.33;75.52
66880;BME280;53789;51.392;10.234;2022-11-12T01:16:59;99868.41;;;4.33;76.06
66880;BME280;53789;51.392;10.234;2022-11-12T01:17:19;99873.03;;;4.32;76.04
66880;BME280;53789;51.392;10.234;2022-11-12T01:17:39;99865.91;;;4.31;75.31
66880;BME280;53789;51.392;10.234;2022-11-12T01:18:00;99862.13;;;4.32;75.32
66880;BME280;53789;51.392;10.234;2022-11-12T01:18:20;99866.75;;;4.32;75.85
66880;BME280;53789;51.392;10.234;2022-11-12T01:18:41;99864.50;;;4.28;75.70
66880;BME280;53789;51.392;10.234;2022-11-12T01:19:05;99867.22;;;4.28;75.49
66880;BME280;53789;51.392;10.234;2022-11-12T01:19:26;99860.31;;;4.26;75.83
66880;BME280;53789;51.392;10.234;2022-11-12T01:19:46;99864.72;;;4.27;75.70
66880;BME280;53789;51.392;10.234;2022-11-12T01:20:07;99864.09;;;4.25;76.17
66880;BME280;53789;51.392;10.234;2022-11-12T01:20:27;99860.53;;;4.24;76.05
66880;BME280;53789;51.392;10.234;2022-11-12T01:20:47;99859.69;;;4.24;76.09
66880;BME280;53789;51.392;10.234;2022-11-12T01:21:08;99860.78;;;4.23;76.00
66880;BME280;53789;51.392;10.234;2022-11-12T01:21:31;99857.19;;;4.22;76.07
66880;BME280;53789;51.392;10.234;2022-11-12T01:21:51;99857.19;;;4.22;75.88
66880;BME280;53789;51.392;10.234;2022-11-12T01:22:12;99861.00;;;4.21;75.41
66880;BME280;53789;51.392;10.234;2022-11-12T01:22:32;99860.13;;;4.21;75.68
66880;BME280;53789;51.392;10.234;2022-11-12T01:22:52;99859.31;;;4.20;76.26
66880;BME280;53789;51.392;10.234;2022-11-12T01:23:12;99857.66;;;4.19;76.03
66880;BME280;53789;51.392;10.234;2022-11-12T01:23:35;99862.28;;;4.19;76.27
66880;BME280;53789;51.392;10.234;2022-11-12T01:23:58;99859.78;;;4.17;76.05
66880;BME280;53789;51.392;10.234;2022-11-12T01:24:18;99857.88;;;4.18;76.23
66880;BME280;53789;51.392;10.234;2022-11-12T01:24:39;99863.53;;;4.16;75.61
66880;BME280;53789;51.392;10.234;2022-11-12T01:24:59;99858.31;;;4.15;75.78
66880;BME280;53789;51.392;10.234;2022-11-12T01:25:19;99863.78;;;4.15;75.46
66880;BME280;53789;51.392;10.234;2022-11-12T01:25:39;99857.50;;;4.14;75.90
66880;BME280;53789;51.392;10.234;2022-11-12T01:26:09;99860.44;;;4.13;75.58
66880;BME280;53789;51.392;10.234;2022-11-12T01:26:30;99861.28;;;4.13;76.27
66880;BME280;53789;51.392;10.234;2022-11-12T01:26:50;99862.31;;;4.12;76.21
66880;BME280;53789;51.392;10.234;2022-11-12T01:27:10;99864.22;;;4.12;76.30
66880;BME280;53789;51.392;10.234;2022-11-12T01:27:32;99864.44;;;4.10;76.28
66880;BME280;53789;51.392;10.234;2022-11-12T01:27:53;99869.06;;;4.09;76.30
66880;BME280;53789;51.392;10.234;2022-11-12T01:28:13;99865.28;;;4.10;76.32
66880;BME280;53789;51.392;10.234;2022-11-12T01:28:34;99866.34;;;4.09;76.41
66880;BME280;53789;51.392;10.234;2022-11-12T01:28:55;99868.00;;;4.10;76.10
66880;BME280;53789;51.392;10.234;2022-11-12T01:29:16;99863.63;;;4.09;75.67
66880;BME280;53789;51.392;10.234;2022-11-12T01:29:36;99864.44;;;4.10;75.69
66880;BME280;53789;51.392;10.234;2022-11-12T01:29:56;99858.19;;;4.09;76.04
66880;BME280;53789;51.392;10.234;2022-11-12T01:30:16;99866.34;;;4.09;75.51
66880;BME280;53789;51.392;10.234;2022-11-12T01:30:37;99861.13;;;4.08;75.96
66880;BME280;53789;51.392;10.234;2022-11-12T01:31:08;99860.28;;;4.07;76.03
66880;BME280;53789;51.392;10.234;2022-11-12T01:31:31;99865.72;;;4.07;76.00
66880;BME280;53789;51.392;10.234;2022-11-12T01:31:52;99860.28;;;4.07;75.97
66880;BME280;53789;51.392;10.234;2022-11-12T01:32:13;99860.50;;;4.06;75.73
66880;BME280;53789;51.392;10.234;2022-11-12T01:32:34;99863.22;;;4.06;75.88
66880;BME280;53789;51.392;10.234;2022-11-12T01:32:55;99859.69;;;4.05;75.85
66880;BME280;53789;51.392;10.234;2022-11-12T01:33:15;99856.13;;;4.05;76.12
66880;BME280;53789;51.392;10.234;2022-11-12T01:33:36;99858.84;;;4.05;75.81
66880;BME280;53789;51.392;10.234;2022-11-12T01:33:59;99863.44;;;4.04;76.03
66880;BME280;53789;51.392;10.234;2022-11-12T01:34:20;99855.50;;;4.03;75.70
66880;BME280;53789;51.392;10.234;2022-11-12T01:34:40;99860.13;;;4.02;75.97
66880;BME280;53789;51.392;10.234;2022-11-12T01:35:01;99855.72;;;4.01;76.22
66880;BME280;53789;51.392;10.234;2022-11-12T01:35:21;99860.34;;;4.01;76.41
66880;BME280;53789;51.392;10.234;2022-11-12T01:35:41;99854.06;;;4.00;75.99
66880;BME280;53789;51.392;10.234;2022-11-12T01:36:02;99863.06;;;4.01;75.75
66880;BME280;53789;51.392;10.234;2022-11-12T01:36:23;99855.72;;;4.01;75.96
66880;BME280;53789;51.392;10.234;2022-11-12T01:36:44;99852.41;;;3.99;75.56
66880;BME280;53789;51.392;10.234;2022-11-12T01:37:04;99856.78;;;4.00;76.16
66880;BME280;53789;51.392;10.234;2022-11-12T01:37:24;99849.69;;;3.99;76.22
66880;BME280;53789;51.392;10.234;2022-11-12T01:37:45;99855.13;;;3.99;75.89
66880;BME280;53789;51.392;10.234;2022-11-12T01:38:05;99857.00;;;3.99;75.66
66880;BME280;53789;51.392;10.234;2022-11-12T01:38:25;99856.19;;;3.98;75.52
66880;BME280;53789;51.392;10.234;2022-11-12T01:38:47;99860.81;;;3.98;75.35
66880;BME280;53789;51.392;10.234;2022-11-12T01:39:08;99850.97;;;3.97;75.82
66880;BME280;53789;51.392;10.234;2022-11-12T01:39:28;99857.44;;;3.96;75.64
66880;BME280;53789;51.392;10.234;2022-11-12T01:39:48;99855.81;;;3.95;75.77
66880;BME280;53789;51.392;10.234;2022-11-12T01:40:09;99863.13;;;3.94;75.40
66880;BME280;53789;51.392;10.234;2022-11-12T01:40:31;99861.47;;;3.93;75.91
66880;BME280;53789;51.392;10.234;2022-11-12T01:40:52;99853.31;;;3.93;76.14
66880;BME280;53789;51.392;10.234;2022-11-12T01:41:16;99856.03;;;3.93;76.15
66880;BME280;53789;51.392;10.234;2022-11-12T01:41:39;99853.31;;;3.93;76.38
66880;BME280;53789;51.392;10.234;2022-11-12T01:42:00;99860.41;;;3.94;75.88
66880;BME280;53789;51.392;10.234;2022-11-12T01:42:22;99860.41;;;3.94;76.59
66880;BME280;53789;51.392;10.234;2022-11-12T01:42:51;99861.25;;;3.95;77.28
66880;BME280;53789;51.392;10.234;2022-11-12T01:43:12;99864.78;;;3.95;76.24
66880;BME280;53789;51.392;10.234;2022-11-12T01:43:34;99860.41;;;3.94;76.04
66880;BME280;53789;51.392;10.234;2022-11-12T01:44:11;99866.47;;;3.96;76.18
66880;BME280;53789;51.392;10.234;2022-11-12T01:44:34;99862.91;;;3.96;75.82
66880;BME280;53789;51.392;10.234;2022-11-12T01:44:54;99867.53;;;3.95;75.78
66880;BME280;53789;51.392;10.234;2022-11-12T01:45:15;99862.06;;;3.95;75.78
66880;BME280;53789;51.392;10.234;2022-11-12T01:45:41;99863.13;;;3.94;75.75
66880;BME280;53789;51.392;10.234;2022-11-12T01:46:12;99861.47;;;3.93;76.03
66880;BME280;53789;51.392;10.234;2022-11-12T01:46:53;99862.06;;;3.95;76.59
66880;BME280;53789;51.392;10.234;2022-11-12T01:47:38;99863.34;;;3.92;76.27
66880;BME280;53789;51.392;10.234;2022-11-12T01:47:59;99862.53;;;3.92;75.30
66880;BME280;53789;51.392;10.234;2022-11-12T01:48:54;99867.34;;;3.90;75.89
66880;BME280;53789;51.392;10.234;2022-11-12T01:49:27;99859.16;;;3.90;75.95
66880;BME280;53789;51.392;10.234;2022-11-12T01:50:24;99854.81;;;3.89;76.22
66880;BME280;53789;51.392;10.234;2022-11-12T01:50:47;99865.69;;;3.89;76.67
66880;BME280;53789;51.392;10.234;2022-11-12T01:51:10;99859.41;;;3.88;76.95
66880;BME280;53789;51.392;10.234;2022-11-12T01:51:37;99855.84;;;3.88;76.74
66880;BME280;53789;51.392;10.234;2022-11-12T01:52:13;99859.41;;;3.88;76.57
66880;BME280;53789;51.392;10.234;2022-11-12T01:52:44;99861.28;;;3.88;75.64
66880;BME280;53789;51.392;10.234;2022-11-12T01:53:10;99865.06;;;3.87;76.06
66880;BME280;53789;51.392;10.234;2022-11-12T01:53:40;99857.97;;;3.86;75.44